createdAt,value
2017-05-08T00:00:08.254Z,187.34
2017-05-08T00:02:36.591Z,184.12
2017-05-08T00:05:04.528Z,162.26
2017-05-08T00:07:32.079Z,176.10
2017-05-08T00:10:00.040Z,169.34
2017-05-08T00:12:27.976Z,157.76
2017-05-08T00:14:55.940Z,160.74
2017-05-08T00:17:23.932Z,161.10
2017-05-08T00:19:52.241Z,174.28
2017-05-08T00:22:20.191Z,138.40
2017-05-08T00:24:47.760Z,139.14
2017-05-08T00:27:15.706Z,138.20
2017-05-08T00:29:44.047Z,126.52
2017-05-08T00:32:12.026Z,146.70
2017-05-08T00:34:39.984Z,150.50
2017-05-08T00:37:07.916Z,128.74
2017-05-08T00:39:35.881Z,157.40
2017-05-08T00:42:04.188Z,147.72
2017-05-08T00:44:32.145Z,122.30
2017-05-08T00:47:00.112Z,124.44
2017-05-08T00:49:28.053Z,148.76
2017-05-08T00:51:56.359Z,137.24
2017-05-08T00:54:24.320Z,136.36
2017-05-08T00:56:52.628Z,124.70
2017-05-08T00:59:20.559Z,137.28
2017-05-08T01:01:48.545Z,123.28
2017-05-08T01:04:16.488Z,124.52
2017-05-08T01:06:44.429Z,112.70
2017-05-08T01:09:12.392Z,126.74
2017-05-08T01:11:40.352Z,104.60
2017-05-08T01:14:08.295Z,115.74
2017-05-08T01:16:36.259Z,122.64
2017-05-08T01:19:04.220Z,123.64
2017-05-08T01:21:32.528Z,110.34
2017-05-08T01:24:00.496Z,103.42
2017-05-08T01:26:28.444Z,114.00
2017-05-08T01:28:56.749Z,91.88
2017-05-08T01:31:24.879Z,99.00
2017-05-08T01:33:53.244Z,91.74
2017-05-08T01:36:21.184Z,112.32
2017-05-08T01:38:49.143Z,119.80
2017-05-08T01:41:17.090Z,108.56
2017-05-08T01:43:45.395Z,106.84
2017-05-08T01:46:13.351Z,104.08
2017-05-08T01:48:41.290Z,87.42
2017-05-08T01:51:09.599Z,113.08
2017-05-08T01:53:37.564Z,98.18
2017-05-08T01:56:05.501Z,94.06
2017-05-08T01:58:33.457Z,100.68
2017-05-08T02:01:01.457Z,84.46
2017-05-08T02:03:29.775Z,89.18
2017-05-08T02:05:57.721Z,79.66
2017-05-08T02:08:25.684Z,90.36
2017-05-08T02:10:53.625Z,73.22
2017-05-08T02:13:21.551Z,76.70
2017-05-08T02:15:49.512Z,71.74
2017-05-08T02:18:17.449Z,77.34
2017-05-08T02:20:45.755Z,71.56
2017-05-08T02:23:13.732Z,68.92
2017-05-08T02:25:41.660Z,61.40
2017-05-08T02:28:09.631Z,51.66
2017-05-08T02:30:37.592Z,62.94
2017-05-08T02:33:05.539Z,60.56
2017-05-08T02:35:33.472Z,57.74
2017-05-08T02:38:01.435Z,61.98
2017-05-08T02:40:29.740Z,66.76
2017-05-08T02:42:57.680Z,59.86
2017-05-08T02:45:26.010Z,59.62
2017-05-08T02:47:53.956Z,59.86
2017-05-08T02:50:21.893Z,66.76
2017-05-08T02:52:50.227Z,67.76
2017-05-08T02:55:18.159Z,55.74
2017-05-08T02:57:45.695Z,48.22
2017-05-08T03:00:13.271Z,53.96
2017-05-08T03:02:41.605Z,60.92
2017-05-08T03:05:09.539Z,47.82
2017-05-08T03:07:37.512Z,61.58
2017-05-08T03:10:05.447Z,51.32
2017-05-08T03:12:33.756Z,55.46
2017-05-08T03:15:01.720Z,61.50
2017-05-08T03:17:29.664Z,68.28
2017-05-08T03:19:57.604Z,59.94
2017-05-08T03:22:25.564Z,59.92
2017-05-08T03:24:53.505Z,50.90
2017-05-08T03:27:21.043Z,61.42
2017-05-08T03:29:48.606Z,62.72
2017-05-08T03:32:16.915Z,59.84
2017-05-08T03:34:44.456Z,63.98
2017-05-08T03:37:12.416Z,69.14
2017-05-08T03:39:40.728Z,64.82
2017-05-08T03:42:08.648Z,58.40
2017-05-08T03:44:36.975Z,54.16
2017-05-08T03:47:04.916Z,59.52
2017-05-08T03:49:32.848Z,62.36
2017-05-08T03:52:00.812Z,61.84
2017-05-08T03:54:28.744Z,63.08
2017-05-08T03:56:56.675Z,63.40
2017-05-08T03:59:25.010Z,62.58
2017-05-08T04:01:52.944Z,73.12
2017-05-08T04:04:21.250Z,67.48
2017-05-08T04:06:49.213Z,78.96
2017-05-08T04:09:17.152Z,69.14
2017-05-08T04:11:45.455Z,71.10
2017-05-08T04:14:13.025Z,70.70
2017-05-08T04:16:40.966Z,80.98
2017-05-08T04:19:09.280Z,92.44
2017-05-08T04:21:37.239Z,86.50
2017-05-08T04:24:05.177Z,83.14
2017-05-08T04:26:33.502Z,81.50
2017-05-08T04:29:01.460Z,91.06
2017-05-08T04:31:29.410Z,95.22
2017-05-08T04:33:57.372Z,89.72
2017-05-08T04:36:25.693Z,70.06
2017-05-08T04:38:53.636Z,75.54
2017-05-08T04:41:21.572Z,77.40
2017-05-08T04:43:49.543Z,85.38
2017-05-08T04:46:17.489Z,77.40
2017-05-08T04:48:45.424Z,81.46
2017-05-08T04:51:13.387Z,90.16
2017-05-08T04:53:41.325Z,78.60
2017-05-08T04:56:09.284Z,73.52
2017-05-08T04:58:37.241Z,75.62
2017-05-08T05:01:05.180Z,67.34
2017-05-08T05:03:32.713Z,76.12
2017-05-08T05:06:00.664Z,76.90
2017-05-08T05:08:28.980Z,74.16
2017-05-08T05:10:56.913Z,82.86
2017-05-08T05:13:24.867Z,66.02
2017-05-08T05:15:52.808Z,88.10
2017-05-08T05:18:20.347Z,72.66
2017-05-08T05:20:48.307Z,86.56
2017-05-08T05:23:16.253Z,69.54
2017-05-08T05:25:44.184Z,77.50
2017-05-08T05:28:12.148Z,97.26
2017-05-08T05:30:40.089Z,95.04
2017-05-08T05:33:07.627Z,108.42
2017-05-08T05:35:35.191Z,92.14
2017-05-08T05:38:03.587Z,99.60
2017-05-08T05:40:31.507Z,120.82
2017-05-08T05:42:59.477Z,107.86
2017-05-08T05:45:27.471Z,129.82
2017-05-08T05:47:55.420Z,121.04
2017-05-08T05:50:23.388Z,120.78
2017-05-08T05:52:51.323Z,123.28
2017-05-08T05:55:19.263Z,143.14
2017-05-08T05:57:47.600Z,146.74
2017-05-08T06:00:15.543Z,129.04
2017-05-08T06:02:43.485Z,126.12
2017-05-08T06:05:11.833Z,124.00
2017-05-08T06:07:39.776Z,139.48
2017-05-08T06:10:07.721Z,123.54
2017-05-08T06:12:35.684Z,141.48
2017-05-08T06:15:03.623Z,124.96
2017-05-08T06:17:31.568Z,126.46
2017-05-08T06:19:59.916Z,119.38
2017-05-08T06:22:27.850Z,118.92
2017-05-08T06:24:55.792Z,135.00
2017-05-08T06:27:23.751Z,137.66
2017-05-08T06:29:51.696Z,119.84
2017-05-08T06:32:19.631Z,145.12
2017-05-08T06:34:47.963Z,127.26
2017-05-08T06:37:15.900Z,123.82
2017-05-08T06:39:43.434Z,122.12
2017-05-08T06:42:11.399Z,119.36
2017-05-08T06:44:39.337Z,143.32
2017-05-08T06:47:07.275Z,137.26
2017-05-08T06:49:35.241Z,145.32
2017-05-08T06:52:03.177Z,139.66
2017-05-08T06:54:31.121Z,129.20
2017-05-08T06:56:59.079Z,123.86
2017-05-08T06:59:27.012Z,138.44
2017-05-08T07:01:55.319Z,135.32
2017-05-08T07:04:23.400Z,141.46
2017-05-08T07:06:51.336Z,137.58
2017-05-08T07:09:19.653Z,121.82
2017-05-08T07:11:47.216Z,133.22
2017-05-08T07:14:15.151Z,134.12
2017-05-08T07:16:43.456Z,136.74
2017-05-08T07:19:11.416Z,144.22
2017-05-08T07:21:39.352Z,147.74
2017-05-08T07:24:07.660Z,150.82
2017-05-08T07:26:35.224Z,166.26
2017-05-08T07:29:03.163Z,137.70
2017-05-08T07:31:31.469Z,150.78
2017-05-08T07:33:59.041Z,148.88
2017-05-08T07:36:27.021Z,140.74
2017-05-08T07:38:54.555Z,137.76
2017-05-08T07:41:22.520Z,138.82
2017-05-08T07:43:50.468Z,123.58
2017-05-08T07:46:18.423Z,115.60
2017-05-08T07:48:46.379Z,123.90
2017-05-08T07:51:14.317Z,127.82
2017-05-08T07:53:41.859Z,117.18
2017-05-08T07:56:10.239Z,126.98
2017-05-08T07:58:38.175Z,119.08
2017-05-08T08:01:06.112Z,117.76
2017-05-08T08:03:34.080Z,129.74
2017-05-08T08:06:02.018Z,127.42
2017-05-08T08:08:29.588Z,140.22
2017-05-08T08:10:57.561Z,130.40
2017-05-08T08:13:25.500Z,145.72
2017-05-08T08:15:53.439Z,150.30
2017-05-08T08:18:21.404Z,123.04
2017-05-08T08:20:49.348Z,147.72
2017-05-08T08:23:17.288Z,144.56
2017-05-08T08:25:45.627Z,149.84
2017-05-08T08:28:13.568Z,140.48
2017-05-08T08:30:41.107Z,178.00
2017-05-08T08:33:09.449Z,155.64
2017-05-08T08:35:37.383Z,144.06
2017-05-08T08:38:05.341Z,166.86
2017-05-08T08:40:33.304Z,160.38
2017-05-08T08:43:01.244Z,168.70
2017-05-08T08:45:29.196Z,155.04
2017-05-08T08:47:57.164Z,168.32
2017-05-08T08:50:25.100Z,154.64
2017-05-08T08:52:53.042Z,157.28
2017-05-08T08:55:20.620Z,165.64
2017-05-08T08:57:48.560Z,158.08
2017-05-08T09:00:16.863Z,153.96
2017-05-08T09:02:44.828Z,128.34
2017-05-08T09:05:13.136Z,140.78
2017-05-08T09:07:41.161Z,160.72
2017-05-08T09:10:08.724Z,155.02
2017-05-08T09:12:37.041Z,143.38
2017-05-08T09:15:04.971Z,136.88
2017-05-08T09:17:32.535Z,142.58
2017-05-08T09:20:00.853Z,133.04
2017-05-08T09:22:28.786Z,132.66
2017-05-08T09:24:57.140Z,139.14
2017-05-08T09:27:25.066Z,152.84
2017-05-08T09:29:52.612Z,150.54
2017-05-08T09:32:20.577Z,147.94
2017-05-08T09:34:48.515Z,125.00
2017-05-08T09:37:16.456Z,130.18
2017-05-08T09:39:44.416Z,131.78
2017-05-08T09:42:12.362Z,143.52
2017-05-08T09:44:40.303Z,139.20
2017-05-08T09:47:08.284Z,137.60
2017-05-08T09:49:36.594Z,125.36
2017-05-08T09:52:04.535Z,133.00
2017-05-08T09:54:32.863Z,142.28
2017-05-08T09:57:00.796Z,131.98
2017-05-08T09:59:28.739Z,125.84
2017-05-08T10:01:56.703Z,126.60
2017-05-08T10:04:24.608Z,136.96
2017-05-08T10:06:52.591Z,112.86
2017-05-08T10:09:20.159Z,134.96
2017-05-08T10:11:48.096Z,129.96
2017-05-08T10:14:15.640Z,120.38
2017-05-08T10:16:43.608Z,120.80
2017-05-08T10:19:11.561Z,131.10
2017-05-08T10:21:39.508Z,141.28
2017-05-08T10:24:07.472Z,117.36
2017-05-08T10:26:35.416Z,113.82
2017-05-08T10:29:03.361Z,116.80
2017-05-08T10:31:31.320Z,114.16
2017-05-08T10:33:58.860Z,106.78
2017-05-08T10:36:26.827Z,107.50
2017-05-08T10:38:54.805Z,102.06
2017-05-08T10:41:22.747Z,113.20
2017-05-08T10:43:50.315Z,101.86
2017-05-08T10:46:18.280Z,104.00
2017-05-08T10:48:45.844Z,106.82
2017-05-08T10:51:13.804Z,117.38
2017-05-08T10:53:41.744Z,136.64
2017-05-08T10:56:09.699Z,120.68
2017-05-08T10:58:37.644Z,112.60
2017-05-08T11:01:05.584Z,122.68
2017-05-08T11:03:33.547Z,128.44
2017-05-08T11:06:01.533Z,133.90
2017-05-08T11:08:29.475Z,134.76
2017-05-08T11:10:57.802Z,159.10
2017-05-08T11:13:31.524Z,138.52
2017-05-08T11:15:59.492Z,153.96
2017-05-08T11:18:27.431Z,162.44
2017-05-08T11:20:55.381Z,159.28
2017-05-08T11:23:23.344Z,141.74
2017-05-08T11:25:51.308Z,141.42
2017-05-08T11:28:19.628Z,169.80
2017-05-08T11:30:47.592Z,144.56
2017-05-08T11:33:15.536Z,155.08
2017-05-08T11:35:43.086Z,151.56
2017-05-08T11:38:11.424Z,142.18
2017-05-08T11:40:39.365Z,169.46
2017-05-08T11:43:07.316Z,141.64
2017-05-08T11:48:12.078Z,141.54
2017-05-08T11:50:40.031Z,157.58
2017-05-08T11:53:07.965Z,167.58
2017-05-08T11:55:35.508Z,152.58
2017-05-08T11:58:03.464Z,154.54
2017-05-08T12:00:31.406Z,153.50
2017-05-08T12:02:59.345Z,150.28
2017-05-08T12:05:27.317Z,140.34
2017-05-08T12:07:55.251Z,131.42
2017-05-08T12:10:23.184Z,136.22
2017-05-08T12:12:51.155Z,128.26
2017-05-08T12:15:19.097Z,126.54
2017-05-08T12:17:46.648Z,126.78
2017-05-08T12:20:14.605Z,123.08
2017-05-08T12:22:42.547Z,120.34
2017-05-08T12:25:10.484Z,120.48
2017-05-08T12:27:38.816Z,127.66
2017-05-08T12:30:06.773Z,124.48
2017-05-08T12:32:34.720Z,118.96
2017-05-08T12:35:02.283Z,126.16
2017-05-08T12:37:30.253Z,113.80
2017-05-08T12:39:58.205Z,105.86
2017-05-08T12:42:26.503Z,129.04
2017-05-08T12:44:54.071Z,124.46
2017-05-08T12:47:21.620Z,119.74
2017-05-08T12:49:49.571Z,104.62
2017-05-08T12:52:17.903Z,115.54
2017-05-08T12:54:45.840Z,117.42
2017-05-08T12:57:13.775Z,103.62
2017-05-08T12:59:41.747Z,106.10
2017-05-08T13:02:09.284Z,121.50
2017-05-08T13:04:37.212Z,89.16
2017-05-08T13:07:05.178Z,91.26
2017-05-08T13:09:33.112Z,113.90
2017-05-08T13:12:01.056Z,112.72
2017-05-08T13:14:29.015Z,110.44
2017-05-08T13:16:56.947Z,97.88
2017-05-08T13:19:24.892Z,105.50
2017-05-08T13:21:52.856Z,118.32
2017-05-08T13:24:20.400Z,102.06
2017-05-08T13:26:48.332Z,80.68
2017-05-08T13:29:16.295Z,104.94
2017-05-08T13:31:44.228Z,96.12
2017-05-08T13:34:12.172Z,111.60
2017-05-08T13:36:40.127Z,90.14
2017-05-08T13:39:08.067Z,97.72
2017-05-08T13:41:36.012Z,94.94
2017-05-08T13:44:03.976Z,111.68
2017-05-08T13:46:31.511Z,99.50
2017-05-08T13:48:59.443Z,96.82
2017-05-08T13:51:27.408Z,94.60
2017-05-08T13:53:54.940Z,102.88
2017-05-08T13:56:22.893Z,95.68
2017-05-08T13:58:50.828Z,89.36
2017-05-08T14:01:18.756Z,89.34
2017-05-08T14:03:47.212Z,93.34
2017-05-08T14:06:15.149Z,96.26
2017-05-08T14:08:43.085Z,98.36
2017-05-08T14:11:11.412Z,90.22
2017-05-08T14:13:39.349Z,76.34
2017-05-08T14:16:07.287Z,84.98
2017-05-08T14:18:35.260Z,85.52
2017-05-08T14:21:03.203Z,90.74
2017-05-08T14:23:31.144Z,92.76
2017-05-08T14:25:58.703Z,82.00
2017-05-08T14:28:26.252Z,95.24
2017-05-08T14:30:54.183Z,91.16
2017-05-08T14:33:22.152Z,103.54
2017-05-08T14:35:50.096Z,78.72
2017-05-08T14:38:18.027Z,86.44
2017-05-08T14:40:46.008Z,78.96
2017-05-08T14:43:13.543Z,73.80
2017-05-08T14:45:41.487Z,85.00
2017-05-08T14:48:09.453Z,73.14
2017-05-08T14:50:37.404Z,71.18
2017-05-08T14:53:05.336Z,89.14
2017-05-08T14:55:33.296Z,79.54
2017-05-08T14:58:01.604Z,89.68
2017-05-08T15:00:29.544Z,104.36
2017-05-08T15:02:57.880Z,94.50
2017-05-08T15:05:25.821Z,89.40
2017-05-08T15:07:53.764Z,99.78
2017-05-08T15:10:22.091Z,80.52
2017-05-08T15:12:50.032Z,93.02
2017-05-08T15:15:17.963Z,94.24
2017-05-08T15:17:45.928Z,81.32
2017-05-08T15:20:13.868Z,84.30
2017-05-08T15:22:41.812Z,102.42
2017-05-08T15:25:09.383Z,89.42
2017-05-08T15:27:37.316Z,77.80
2017-05-08T15:30:05.620Z,79.82
2017-05-08T15:32:33.612Z,102.96
2017-05-08T15:35:01.556Z,90.34
2017-05-08T15:37:29.091Z,79.36
2017-05-08T15:39:57.433Z,89.36
2017-05-08T15:42:25.386Z,89.64
2017-05-08T15:44:53.350Z,81.10
2017-05-08T15:47:21.325Z,93.40
2017-05-08T15:49:48.868Z,84.02
2017-05-08T15:52:16.840Z,92.94
2017-05-08T15:54:44.764Z,83.76
2017-05-08T15:57:12.709Z,98.52
2017-05-08T15:59:40.276Z,92.66
2017-05-08T16:02:08.212Z,86.58
2017-05-08T16:04:36.533Z,76.22
2017-05-08T16:07:04.472Z,80.76
2017-05-08T16:09:32.410Z,96.76
2017-05-08T16:12:00.744Z,75.06
2017-05-08T16:14:28.679Z,81.14
2017-05-08T16:16:56.619Z,91.70
2017-05-08T16:19:24.952Z,72.64
2017-05-08T16:21:52.892Z,71.46
2017-05-08T16:24:20.837Z,66.12
2017-05-08T16:26:48.815Z,66.86
2017-05-08T16:29:17.188Z,69.34
2017-05-08T16:31:44.720Z,73.62
2017-05-08T16:34:12.684Z,75.82
2017-05-08T16:36:40.636Z,70.54
2017-05-08T16:39:08.613Z,63.86
2017-05-08T16:41:36.612Z,80.00
2017-05-08T16:44:04.576Z,69.10
2017-05-08T16:46:32.536Z,78.24
2017-05-08T16:49:00.495Z,68.62
2017-05-08T16:51:28.482Z,77.86
2017-05-08T16:53:56.512Z,81.88
2017-05-08T16:56:24.587Z,72.78
2017-05-08T16:58:52.549Z,76.42
2017-05-08T17:01:20.538Z,89.88
2017-05-08T17:03:48.106Z,68.26
2017-05-08T17:06:16.078Z,70.54
2017-05-08T17:08:44.121Z,83.48
2017-05-08T17:11:12.100Z,79.68
2017-05-08T17:13:40.193Z,82.00
2017-05-08T17:16:08.117Z,77.32
2017-05-08T17:18:36.112Z,78.28
2017-05-08T17:21:03.716Z,85.86
2017-05-08T17:23:31.653Z,82.88
2017-05-08T17:25:59.246Z,80.00
2017-05-08T17:28:27.277Z,93.60
2017-05-08T17:30:54.916Z,80.60
2017-05-08T17:33:22.931Z,92.76
2017-05-08T17:35:51.026Z,88.98
2017-05-08T17:38:19.201Z,85.06
2017-05-08T17:40:47.364Z,78.50
2017-05-08T17:43:15.820Z,83.02
2017-05-08T17:45:44.266Z,91.12
2017-05-08T17:48:13.033Z,100.24
2017-05-08T17:50:41.699Z,96.06
2017-05-08T17:53:10.319Z,83.78
2017-05-08T17:55:39.312Z,93.20
2017-05-08T17:58:08.042Z,97.54
2017-05-08T18:00:36.434Z,109.34
2017-05-08T18:03:05.289Z,108.54
2017-05-08T18:05:34.196Z,101.80
2017-05-08T18:08:02.657Z,99.40
2017-05-08T18:10:31.552Z,105.82
2017-05-08T18:13:00.421Z,75.58
2017-05-08T18:15:29.370Z,87.34
2017-05-08T18:17:58.421Z,67.98
2017-05-08T18:20:27.322Z,67.00
2017-05-08T18:22:56.255Z,63.98
2017-05-08T18:25:25.835Z,71.56
2017-05-08T18:27:54.776Z,59.68
2017-05-08T18:30:23.720Z,65.76
2017-05-08T18:32:52.742Z,52.74
2017-05-08T18:35:21.720Z,58.54
2017-05-08T18:37:50.269Z,66.36
2017-05-08T18:40:19.356Z,65.68
2017-05-08T18:42:48.816Z,55.58
2017-05-08T18:45:18.164Z,66.10
2017-05-08T18:47:47.506Z,53.34
2017-05-08T18:50:16.591Z,64.90
2017-05-08T18:52:45.878Z,57.42
2017-05-08T18:55:15.199Z,76.90
2017-05-08T18:57:44.153Z,54.54
2017-05-08T19:00:13.456Z,59.50
2017-05-08T19:02:42.765Z,57.66
2017-05-08T19:05:11.351Z,57.44
2017-05-08T19:07:40.666Z,54.16
2017-05-08T19:10:09.710Z,60.94
2017-05-08T19:12:39.095Z,60.50
2017-05-08T19:15:07.799Z,62.70
2017-05-08T19:17:37.610Z,61.20
2017-05-08T19:20:06.595Z,58.48
2017-05-08T19:22:36.717Z,57.36
2017-05-08T19:25:05.704Z,54.62
2017-05-08T19:27:34.582Z,68.68
2017-05-08T19:30:03.626Z,54.60
2017-05-08T19:32:32.669Z,60.92
2017-05-08T19:35:02.024Z,71.66
2017-05-08T19:37:31.130Z,69.06
2017-05-08T19:40:00.521Z,53.04
2017-05-08T19:42:29.479Z,51.94
2017-05-08T19:44:58.536Z,52.76
2017-05-08T19:47:27.760Z,64.94
2017-05-08T19:49:56.717Z,72.62
2017-05-08T19:52:25.843Z,54.20
2017-05-08T19:54:55.266Z,72.14
2017-05-08T19:57:24.288Z,56.18
2017-05-08T19:59:53.932Z,49.62
2017-05-08T20:02:23.212Z,50.74
2017-05-08T20:04:52.192Z,57.78
2017-05-08T20:07:21.864Z,61.54
2017-05-08T20:09:51.849Z,57.34
2017-05-08T20:12:20.811Z,85.64
2017-05-08T20:14:49.886Z,61.12
2017-05-08T20:17:18.837Z,58.82
2017-05-08T20:19:48.119Z,60.46
2017-05-08T20:22:17.102Z,70.34
2017-05-08T20:24:46.458Z,66.72
2017-05-08T20:27:15.821Z,80.12
2017-05-08T20:29:44.782Z,66.24
2017-05-08T20:32:13.722Z,76.92
2017-05-08T20:34:42.782Z,69.98
2017-05-08T20:37:11.721Z,69.52
2017-05-08T20:39:40.622Z,57.66
2017-05-08T20:42:09.592Z,63.22
2017-05-08T20:44:37.888Z,70.58
2017-05-08T20:47:06.174Z,91.02
2017-05-08T20:49:34.795Z,65.20
2017-05-08T20:52:03.338Z,61.08
2017-05-08T20:54:31.442Z,65.34
2017-05-08T20:56:59.868Z,63.70
2017-05-08T20:59:28.141Z,59.04
2017-05-08T21:01:56.220Z,65.68
2017-05-08T21:04:24.221Z,67.02
2017-05-08T21:06:52.458Z,57.16
2017-05-08T21:09:20.440Z,66.20
2017-05-08T21:11:48.422Z,63.16
2017-05-08T21:14:16.361Z,63.68
2017-05-08T21:16:44.300Z,73.84
2017-05-08T21:19:11.859Z,72.36
2017-05-08T21:21:39.396Z,70.06
2017-05-08T21:24:07.333Z,60.52
2017-05-08T21:26:35.300Z,63.14
2017-05-08T21:29:03.248Z,66.76
2017-05-08T21:31:31.547Z,77.92
2017-05-08T21:33:59.120Z,64.35
2017-05-08T21:36:27.053Z,64.02
2017-05-08T21:38:55.353Z,82.66
2017-05-08T21:41:23.320Z,79.38
2017-05-08T21:43:51.252Z,61.54
2017-05-08T21:46:18.800Z,62.45
2017-05-08T21:48:46.760Z,63.23
2017-05-08T21:51:14.700Z,74.52
2017-05-08T21:53:42.641Z,56.80
2017-05-08T21:56:10.959Z,76.12
2017-05-08T21:58:38.906Z,69.36
2017-05-08T22:01:06.840Z,77.66
2017-05-08T22:03:34.812Z,67.32
2017-05-08T22:06:02.356Z,72.48
2017-05-08T22:08:30.308Z,68.77
2017-05-08T22:10:57.872Z,77.08
2017-05-08T22:13:25.831Z,61.16
2017-05-08T22:15:53.839Z,65.32
2017-05-08T22:18:21.788Z,82.78
2017-05-08T22:20:49.724Z,61.63
2017-05-08T22:23:17.684Z,75.94
2017-05-08T22:25:45.620Z,74.95
2017-05-08T22:28:13.957Z,76.02
2017-05-08T22:30:41.912Z,58.82
2017-05-08T22:33:09.844Z,61.58
2017-05-08T22:35:38.143Z,78.92
2017-05-08T22:38:05.709Z,58.02
2017-05-08T22:40:33.651Z,75.23
2017-05-08T22:43:01.592Z,65.74
2017-05-08T22:45:29.546Z,72.38
2017-05-08T22:47:57.480Z,82.96
2017-05-08T22:50:25.779Z,80.36
2017-05-08T22:52:53.736Z,82.68
2017-05-08T22:55:21.703Z,76.90
2017-05-08T22:57:49.234Z,68.00
2017-05-08T23:00:17.189Z,70.10
2017-05-08T23:02:45.119Z,70.44
2017-05-08T23:05:13.055Z,75.06
2017-05-08T23:07:41.459Z,66.62
2017-05-08T23:10:09.404Z,57.90
2017-05-08T23:12:37.708Z,81.14
2017-05-08T23:15:05.659Z,59.20
2017-05-08T23:17:33.963Z,80.04
2017-05-08T23:20:01.921Z,67.30
2017-05-08T23:22:29.860Z,69.62
2017-05-08T23:24:57.785Z,89.24
2017-05-08T23:27:25.739Z,65.74
2017-05-08T23:29:53.672Z,67.88
2017-05-08T23:32:21.212Z,71.64
2017-05-08T23:34:49.272Z,90.00
2017-05-08T23:37:17.220Z,69.78
2017-05-08T23:39:45.154Z,71.06
2017-05-08T23:42:13.483Z,64.54
2017-05-08T23:44:41.436Z,63.42
2017-05-08T23:47:09.351Z,68.64
2017-05-08T23:49:37.308Z,78.22
2017-05-08T23:52:05.236Z,70.52
2017-05-08T23:54:33.231Z,67.56
2017-05-08T23:57:00.779Z,72.76
2017-05-08T23:59:28.708Z,70.22
